首页
METAR-TAF:

METAR-TAF

机场 :

布加勒斯特奥托佩尼-亨利·科安德国际机场

布加勒斯特, 罗马尼亚

纬度: 44-33N, 经度: 026-06E, 海拔: 95米

当前天气观测

该预报发布于12分钟前的07:00 UTC
风速6节,风向东南
温度 23°C
湿度 57%
气压 1007 hPa
能见度10公里或以上
1500米以下无云,无积雨云

METAR: LROP 200700Z 13006KT CAVOK 23/14 Q1007 NOSIG

时间: 10:12 (07:12 UTC)

预报

该预报发布于2小时和12分钟前的05:00 UTC
预报有效从20日的 06点(UTC)到 21日的 06点(UTC)
风速8节,风向东南
能见度10公里或以上
1500米以下无云,无积雨云
成为
从 20日的 13点(UTC)到 20日的 15点(UTC)
风速18节,风向西
散云层高于4000英尺, 积雨云.
短暂存在
从 20日的 15点(UTC)到 20日的 20点(UTC)
能見度: 5000
多云层高于1000英尺
多云层高于3000英尺, 积雨云.
雷暴, 雨
几率 30% :
短暂存在
从 20日的 17点(UTC)到 20日的 19点(UTC)
风速25节,风向西,有时为35节阵风
能見度: 1500
雷暴, 大雨
成为
从 20日的 20点(UTC)到 20日的 22点(UTC)
风速8节,风向西
能见度10公里或以上
散云层高于4000英尺

TAF: LROP 200500Z 2006/2106 14008KT CAVOK BECMG 2013/2015 26018KT SCT040CB TEMPO 2015/2020 5000 TSRA BKN010 BKN030CB PROB30 TEMPO 2017/2019 26025G35KT 1500 +TSRA BECMG 2020/2022 26008KT 9999 NSW SCT040

超过4000个机场的气象观测和天气预报(METAR&TAF报告)。

可查询的气象台以黄色和红色小点在地图上表示。

将鼠标移到小点上方,可查看气象台名称。

然后点击查看天气观测和预报。

如需切换地图:点击带黑十字的绿色按钮放大地图;点击带横线的绿色按钮缩小地图;或者点击绿色箭头查看邻近地区的地图。


METAR-TAF: